Time;durP1;ratioP1;P1;durP2;ratioP2;P2;SDS_P1;SDS_P2;PMS_P1;PMS_P2;Temp;Humidity;BMP_temperature;BMP_pressure;BME280_temperature;BME280_humidity;BME280_pressure;Samples;Min_cycle;Max_cycle;Signal;HPM_P1;HPM_P2
2021/09/11 00:00:57;;;;;;;8.98;4.32;;;;;;;;;;5076843;28;20025;-82
2021/09/11 00:03:23;;;;;;;6.72;4.85;;;;;;;;;;5075707;28;20021;-82
2021/09/11 00:05:49;;;;;;;8.93;4.70;;;;;;;;;;5076802;28;20082;-82
2021/09/11 00:08:15;;;;;;;11.57;4.57;;;;;;;;;;5076883;28;20024;-82
2021/09/11 00:10:41;;;;;;;7.75;4.65;;;;;;;;;;5076866;28;20086;-82
2021/09/11 00:13:07;;;;;;;8.95;4.35;;;;;;;;;;5075697;28;20029;-81
2021/09/11 00:15:34;;;;;;;10.63;4.25;;;;;;;;;;5076559;28;20451;-81
2021/09/11 00:18:01;;;;;;;9.43;5.05;;;;;;;;;;5076952;28;20033;-82
2021/09/11 00:20:28;;;;;;;9.90;5.05;;;;;;;;;;5075708;28;20052;-81
2021/09/11 00:22:54;;;;;;;7.65;4.50;;;;;;;;;;5075534;28;20017;-82
2021/09/11 00:25:20;;;;;;;8.77;4.45;;;;;;;;;;5076557;28;20020;-81
2021/09/11 00:27:46;;;;;;;8.18;5.20;;;;;;;;;;5076648;28;20142;-81
2021/09/11 00:30:13;;;;;;;8.80;4.43;;;;;;;;;;5076457;28;20029;-81
2021/09/11 00:32:43;;;;;;;10.27;4.72;;;;;;;;;;5075646;28;20052;-83
2021/09/11 00:35:10;;;;;;;8.48;4.90;;;;;;;;;;5080013;28;20433;-82
2021/09/11 00:37:36;;;;;;;9.63;4.75;;;;;;;;;;5079277;28;20029;-82
2021/09/11 00:40:02;;;;;;;10.00;4.57;;;;;;;;;;5080464;28;20024;-82
2021/09/11 00:42:28;;;;;;;15.45;5.15;;;;;;;;;;5079210;28;20025;-82
2021/09/11 00:44:54;;;;;;;11.55;4.75;;;;;;;;;;5080067;28;20024;-82
2021/09/11 00:47:20;;;;;;;8.30;4.90;;;;;;;;;;5080130;28;20017;-81
2021/09/11 00:49:46;;;;;;;8.43;4.53;;;;;;;;;;5080318;28;20032;-82
2021/09/11 00:52:12;;;;;;;12.70;5.00;;;;;;;;;;5079831;28;20071;-82
2021/09/11 00:54:39;;;;;;;11.30;4.97;;;;;;;;;;5080343;28;20047;-82
2021/09/11 00:57:05;;;;;;;11.10;4.53;;;;;;;;;;5078952;28;20545;-82
2021/09/11 00:59:31;;;;;;;12.70;4.97;;;;;;;;;;5078789;28;20406;-82
2021/09/11 01:01:57;;;;;;;8.38;4.82;;;;;;;;;;5079143;28;20052;-82
2021/09/11 01:04:26;;;;;;;9.73;4.70;;;;;;;;;;5080086;28;20161;-82
2021/09/11 01:06:53;;;;;;;7.57;4.28;;;;;;;;;;5079831;28;20334;-82
2021/09/11 01:09:19;;;;;;;7.75;4.13;;;;;;;;;;5079666;28;20037;-81
2021/09/11 01:11:45;;;;;;;13.65;5.20;;;;;;;;;;5078608;28;20029;-81
2021/09/11 01:14:11;;;;;;;10.00;4.82;;;;;;;;;;5079480;28;20025;-81
2021/09/11 01:16:37;;;;;;;10.15;4.75;;;;;;;;;;5079487;28;20062;-81
2021/09/11 01:19:03;;;;;;;9.23;4.95;;;;;;;;;;5079638;28;20028;-81
2021/09/11 01:21:29;;;;;;;8.00;4.95;;;;;;;;;;5078667;28;20031;-81
2021/09/11 01:23:55;;;;;;;8.80;5.13;;;;;;;;;;5078367;28;20031;-81
2021/09/11 01:26:22;;;;;;;12.48;5.15;;;;;;;;;;5078555;28;20032;-81
2021/09/11 01:28:48;;;;;;;8.70;4.97;;;;;;;;;;5079330;28;20074;-81
2021/09/11 01:31:14;;;;;;;8.88;4.85;;;;;;;;;;5078536;28;20041;-81
2021/09/11 01:33:40;;;;;;;10.38;5.18;;;;;;;;;;5079198;28;20048;-81
2021/09/11 01:36:06;;;;;;;11.10;5.40;;;;;;;;;;5079210;28;20032;-81
2021/09/11 01:38:32;;;;;;;10.00;4.90;;;;;;;;;;5077989;28;20027;-81
2021/09/11 01:40:58;;;;;;;7.88;4.85;;;;;;;;;;5079009;28;20029;-81
2021/09/11 01:43:31;;;;;;;11.95;5.53;;;;;;;;;;5078993;28;20024;-81
2021/09/11 01:45:58;;;;;;;10.68;5.57;;;;;;;;;;5078681;28;20035;-81
2021/09/11 01:48:24;;;;;;;15.07;5.68;;;;;;;;;;5077992;28;20315;-81
2021/09/11 01:50:50;;;;;;;11.90;6.05;;;;;;;;;;5079061;28;20031;-81
2021/09/11 01:53:16;;;;;;;8.68;5.82;;;;;;;;;;5079005;28;20074;-81
2021/09/11 01:55:42;;;;;;;11.32;5.78;;;;;;;;;;5079014;28;20035;-81
2021/09/11 01:58:08;;;;;;;13.27;5.50;;;;;;;;;;5077857;28;20325;-83
2021/09/11 02:00:34;;;;;;;11.23;5.72;;;;;;;;;;5078018;28;20334;-82
2021/09/11 02:03:00;;;;;;;9.68;5.72;;;;;;;;;;5078820;28;20040;-82
2021/09/11 02:05:27;;;;;;;9.52;5.95;;;;;;;;;;5078965;28;20311;-82
2021/09/11 02:07:53;;;;;;;13.60;6.45;;;;;;;;;;5078649;28;20024;-81
2021/09/11 02:10:19;;;;;;;13.35;5.80;;;;;;;;;;5078575;28;20032;-82
2021/09/11 02:12:45;;;;;;;13.40;6.22;;;;;;;;;;5078575;28;20060;-82
2021/09/11 02:15:11;;;;;;;12.55;6.10;;;;;;;;;;5078382;28;20075;-82
2021/09/11 02:17:41;;;;;;;13.52;6.57;;;;;;;;;;5078759;28;20020;-82
2021/09/11 02:20:08;;;;;;;10.10;5.93;;;;;;;;;;5078489;28;20031;-82
2021/09/11 02:22:34;;;;;;;13.02;6.63;;;;;;;;;;5077241;28;20021;-81
2021/09/11 02:25:00;;;;;;;11.40;6.57;;;;;;;;;;5077288;28;20023;-81
2021/09/11 02:27:26;;;;;;;13.82;6.97;;;;;;;;;;5078226;28;20012;-81
2021/09/11 02:29:52;;;;;;;11.52;7.05;;;;;;;;;;5078027;28;20024;-81
2021/09/11 02:32:18;;;;;;;10.45;6.40;;;;;;;;;;5077415;28;20141;-80
2021/09/11 02:34:45;;;;;;;14.20;6.32;;;;;;;;;;5076893;28;20075;-83
2021/09/11 02:37:11;;;;;;;11.30;6.63;;;;;;;;;;5078178;28;20368;-82
2021/09/11 02:39:37;;;;;;;15.80;7.32;;;;;;;;;;5077784;28;20020;-82
2021/09/11 02:42:04;;;;;;;15.60;6.65;;;;;;;;;;5077286;28;20028;-82
2021/09/11 02:44:30;;;;;;;16.88;7.45;;;;;;;;;;5077860;28;20016;-83
2021/09/11 02:46:56;;;;;;;13.48;6.68;;;;;;;;;;5077956;28;20035;-83
2021/09/11 02:49:22;;;;;;;14.40;7.75;;;;;;;;;;5077892;28;20025;-82
2021/09/11 02:51:48;;;;;;;19.02;7.20;;;;;;;;;;5077848;28;20036;-83
2021/09/11 02:54:14;;;;;;;16.58;7.72;;;;;;;;;;5077978;28;20032;-83
2021/09/11 02:56:40;;;;;;;12.45;7.28;;;;;;;;;;5076965;28;20025;-82
2021/09/11 02:59:06;;;;;;;13.05;7.35;;;;;;;;;;5077668;28;20547;-83
2021/09/11 03:01:33;;;;;;;13.10;7.15;;;;;;;;;;5077601;28;20505;-83
2021/09/11 03:03:59;;;;;;;15.98;6.97;;;;;;;;;;5077810;28;20070;-83
2021/09/11 03:06:25;;;;;;;16.33;7.60;;;;;;;;;;5077780;28;20081;-82
2021/09/11 03:08:51;;;;;;;16.33;7.32;;;;;;;;;;5077619;28;20028;-82
2021/09/11 03:11:17;;;;;;;18.35;7.45;;;;;;;;;;5077509;28;20028;-82
2021/09/11 03:13:43;;;;;;;19.52;7.85;;;;;;;;;;5077372;28;20314;-82
2021/09/11 03:16:09;;;;;;;11.40;7.05;;;;;;;;;;5077503;28;20097;-81
2021/09/11 03:18:36;;;;;;;15.70;7.57;;;;;;;;;;5076567;28;20414;-82
2021/09/11 03:21:02;;;;;;;12.60;7.28;;;;;;;;;;5077642;28;20036;-82
2021/09/11 03:23:28;;;;;;;15.00;7.93;;;;;;;;;;5077503;28;20115;-83
2021/09/11 03:25:54;;;;;;;15.43;8.07;;;;;;;;;;5076544;28;20036;-82
2021/09/11 03:28:20;;;;;;;13.77;7.57;;;;;;;;;;5077329;28;20028;-83
2021/09/11 03:30:46;;;;;;;13.38;8.05;;;;;;;;;;5077278;28;20028;-83
2021/09/11 03:33:12;;;;;;;17.52;8.60;;;;;;;;;;5077095;28;20024;-82
2021/09/11 03:35:38;;;;;;;18.20;7.68;;;;;;;;;;5077133;28;20032;-82
2021/09/11 03:38:04;;;;;;;15.57;8.65;;;;;;;;;;5077244;28;20012;-82
2021/09/11 03:40:30;;;;;;;16.55;8.45;;;;;;;;;;5076100;28;20032;-82
2021/09/11 03:42:56;;;;;;;16.95;8.13;;;;;;;;;;5077186;28;20070;-82
2021/09/11 03:45:22;;;;;;;17.60;7.95;;;;;;;;;;5076811;28;20052;-82
2021/09/11 03:47:48;;;;;;;16.20;8.13;;;;;;;;;;5077234;28;20060;-82
2021/09/11 03:50:14;;;;;;;22.33;8.43;;;;;;;;;;5077346;28;20088;-82
2021/09/11 03:52:41;;;;;;;17.90;8.85;;;;;;;;;;5077118;28;20024;-82
2021/09/11 03:55:07;;;;;;;14.52;8.35;;;;;;;;;;5076940;28;20419;-82
2021/09/11 03:57:33;;;;;;;18.88;8.85;;;;;;;;;;5075942;28;20437;-82
2021/09/11 03:59:59;;;;;;;14.35;8.32;;;;;;;;;;5075894;28;20024;-82
2021/09/11 04:02:25;;;;;;;15.65;8.60;;;;;;;;;;5076075;28;20035;-82
2021/09/11 04:04:51;;;;;;;17.73;8.93;;;;;;;;;;5075968;28;20056;-81
2021/09/11 04:07:17;;;;;;;18.27;8.02;;;;;;;;;;5077873;28;20029;-81
2021/09/11 04:09:43;;;;;;;23.95;9.07;;;;;;;;;;5080825;28;20025;-81
2021/09/11 04:12:09;;;;;;;21.05;8.27;;;;;;;;;;5080798;28;20032;-80
2021/09/11 04:14:35;;;;;;;19.17;8.20;;;;;;;;;;5080755;28;20318;-81
2021/09/11 04:17:02;;;;;;;18.50;8.52;;;;;;;;;;5080829;28;20020;-80
2021/09/11 04:19:28;;;;;;;19.35;8.38;;;;;;;;;;5080812;28;20058;-81
2021/09/11 04:21:54;;;;;;;14.85;8.07;;;;;;;;;;5080642;28;20031;-80
2021/09/11 04:24:20;;;;;;;26.00;9.13;;;;;;;;;;5079746;28;20043;-81
2021/09/11 04:26:46;;;;;;;20.75;8.25;;;;;;;;;;5080534;28;20078;-81
2021/09/11 04:29:12;;;;;;;19.25;9.07;;;;;;;;;;5080717;28;20029;-80
2021/09/11 04:31:38;;;;;;;22.30;8.68;;;;;;;;;;5080426;28;20028;-81
2021/09/11 04:34:04;;;;;;;19.08;8.88;;;;;;;;;;5080305;28;20047;-82
2021/09/11 04:36:30;;;;;;;20.20;8.93;;;;;;;;;;5080302;28;20070;-82
2021/09/11 04:38:56;;;;;;;24.20;8.65;;;;;;;;;;5079398;28;20031;-82
2021/09/11 04:41:22;;;;;;;17.17;8.05;;;;;;;;;;5080058;28;20032;-82
2021/09/11 04:43:48;;;;;;;16.50;8.25;;;;;;;;;;5080343;28;20108;-82
2021/09/11 04:46:14;;;;;;;20.88;7.90;;;;;;;;;;5082333;28;20039;-81
2021/09/11 04:48:41;;;;;;;24.25;9.43;;;;;;;;;;5100269;28;20446;-81
2021/09/11 04:51:07;;;;;;;21.27;9.30;;;;;;;;;;5100606;28;20042;-84
2021/09/11 04:53:33;;;;;;;20.20;8.88;;;;;;;;;;5100314;28;20436;-82
2021/09/11 04:55:59;;;;;;;23.00;10.57;;;;;;;;;;5100282;28;20360;-81
2021/09/11 04:58:25;;;;;;;23.98;10.35;;;;;;;;;;5100387;28;20025;-81
2021/09/11 05:00:51;;;;;;;24.20;9.80;;;;;;;;;;5100114;28;20028;-82
2021/09/11 05:03:17;;;;;;;18.40;9.32;;;;;;;;;;5098761;28;20040;-80
2021/09/11 05:05:43;;;;;;;18.17;8.73;;;;;;;;;;5098590;28;20046;-82
2021/09/11 05:08:11;;;;;;;23.95;9.48;;;;;;;;;;5098695;28;20028;-80
2021/09/11 05:10:37;;;;;;;31.40;9.82;;;;;;;;;;5097268;28;20440;-81
2021/09/11 05:13:03;;;;;;;24.92;9.85;;;;;;;;;;5098847;28;20032;-81
2021/09/11 05:15:29;;;;;;;20.92;9.38;;;;;;;;;;5098726;28;20356;-81
2021/09/11 05:17:55;;;;;;;28.60;9.85;;;;;;;;;;5099920;28;20024;-81
2021/09/11 05:20:21;;;;;;;24.48;9.30;;;;;;;;;;5099196;28;20020;-81
2021/09/11 05:22:47;;;;;;;17.60;9.30;;;;;;;;;;5099887;28;20020;-81
2021/09/11 05:25:14;;;;;;;18.65;8.98;;;;;;;;;;5099650;28;20012;-81
2021/09/11 05:27:40;;;;;;;22.85;9.27;;;;;;;;;;5099548;28;20070;-82
2021/09/11 05:30:07;;;;;;;24.23;9.32;;;;;;;;;;5098584;28;20039;-81
2021/09/11 05:32:33;;;;;;;21.58;9.57;;;;;;;;;;5099295;28;20016;-81
2021/09/11 05:34:59;;;;;;;23.95;9.63;;;;;;;;;;5099247;28;20047;-82
2021/09/11 05:37:25;;;;;;;23.38;10.00;;;;;;;;;;5099415;28;20039;-81
2021/09/11 05:39:51;;;;;;;23.42;9.18;;;;;;;;;;5098408;28;20028;-81
2021/09/11 05:42:19;;;;;;;21.48;8.82;;;;;;;;;;5099363;28;20410;-81
2021/09/11 05:44:45;;;;;;;21.98;9.40;;;;;;;;;;5099402;28;20028;-81
2021/09/11 05:47:12;;;;;;;19.73;9.77;;;;;;;;;;5099087;28;20129;-81
2021/09/11 05:49:38;;;;;;;20.52;9.68;;;;;;;;;;5099543;28;20423;-81
2021/09/11 05:52:04;;;;;;;17.63;9.07;;;;;;;;;;5099504;28;20047;-81
2021/09/11 05:54:30;;;;;;;20.17;8.95;;;;;;;;;;5099309;28;20020;-81
2021/09/11 05:56:56;;;;;;;13.20;8.07;;;;;;;;;;5098058;28;20085;-82
2021/09/11 05:59:22;;;;;;;21.30;9.05;;;;;;;;;;5099131;28;20039;-81
2021/09/11 06:01:48;;;;;;;18.55;9.45;;;;;;;;;;5099025;28;20099;-82
2021/09/11 06:04:14;;;;;;;15.18;8.15;;;;;;;;;;5099186;28;20020;-82
2021/09/11 06:06:41;;;;;;;14.75;7.70;;;;;;;;;;5097683;28;20430;-81
2021/09/11 06:09:07;;;;;;;14.82;7.60;;;;;;;;;;5097955;28;20360;-81
2021/09/11 06:11:33;;;;;;;19.35;7.47;;;;;;;;;;5097893;28;20035;-81
2021/09/11 06:13:59;;;;;;;17.35;7.65;;;;;;;;;;5098764;28;20069;-81
2021/09/11 06:16:25;;;;;;;17.85;7.93;;;;;;;;;;5097720;28;20024;-81
2021/09/11 06:18:51;;;;;;;18.90;7.63;;;;;;;;;;5097580;28;20028;-81
2021/09/11 06:21:17;;;;;;;12.93;7.10;;;;;;;;;;5098519;28;20455;-81
2021/09/11 06:23:43;;;;;;;18.92;7.45;;;;;;;;;;5098855;28;20028;-81
2021/09/11 06:26:09;;;;;;;16.30;7.35;;;;;;;;;;5097618;28;20069;-81
2021/09/11 06:28:35;;;;;;;18.13;7.45;;;;;;;;;;5098614;28;20028;-82
2021/09/11 06:31:01;;;;;;;17.38;7.57;;;;;;;;;;5098307;28;20107;-82
2021/09/11 06:33:28;;;;;;;15.90;7.45;;;;;;;;;;5098057;28;20127;-81
2021/09/11 06:35:54;;;;;;;16.83;7.55;;;;;;;;;;5097244;28;20140;-82
2021/09/11 06:38:20;;;;;;;17.10;7.57;;;;;;;;;;5097162;28;20042;-81
2021/09/11 06:40:46;;;;;;;15.00;8.20;;;;;;;;;;5098207;28;20032;-81
2021/09/11 06:43:12;;;;;;;61.67;40.42;;;;;;;;;;5097152;28;20024;-82
2021/09/11 06:45:38;;;;;;;35.95;21.77;;;;;;;;;;5098029;28;20410;-81
2021/09/11 06:48:04;;;;;;;26.13;15.05;;;;;;;;;;5098160;28;20449;-82
2021/09/11 06:50:30;;;;;;;108.63;65.68;;;;;;;;;;5098105;28;20028;-81
2021/09/11 06:52:56;;;;;;;63.22;39.03;;;;;;;;;;5098258;28;20044;-80
2021/09/11 06:55:22;;;;;;;24.95;12.68;;;;;;;;;;5096862;28;20031;-81
2021/09/11 06:57:48;;;;;;;27.83;15.57;;;;;;;;;;5097062;28;20024;-81
2021/09/11 07:00:14;;;;;;;31.58;16.45;;;;;;;;;;5098070;28;20020;-81
2021/09/11 07:02:40;;;;;;;67.97;44.95;;;;;;;;;;5097868;28;20028;-81
2021/09/11 07:05:06;;;;;;;35.97;22.52;;;;;;;;;;5096305;28;20043;-81
2021/09/11 07:07:33;;;;;;;85.13;50.53;;;;;;;;;;5093850;28;20035;-82
2021/09/11 07:09:59;;;;;;;24.13;15.13;;;;;;;;;;5088438;28;20460;-81
2021/09/11 07:12:25;;;;;;;67.57;40.92;;;;;;;;;;5078270;28;20024;-82
2021/09/11 07:14:51;;;;;;;67.07;38.75;;;;;;;;;;5077620;28;20048;-81
2021/09/11 07:17:17;;;;;;;38.40;23.58;;;;;;;;;;5077323;28;20044;-82
2021/09/11 07:19:43;;;;;;;73.95;44.00;;;;;;;;;;5077264;28;20028;-81
2021/09/11 07:22:09;;;;;;;46.42;30.25;;;;;;;;;;5077688;28;20020;-81
2021/09/11 07:24:35;;;;;;;31.95;12.98;;;;;;;;;;5077455;28;20048;-82
2021/09/11 07:27:01;;;;;;;41.90;23.13;;;;;;;;;;5077092;28;20031;-82
2021/09/11 07:29:27;;;;;;;24.55;10.13;;;;;;;;;;5077106;28;20028;-81
2021/09/11 07:31:53;;;;;;;20.23;11.60;;;;;;;;;;5076147;28;20028;-81
2021/09/11 07:34:19;;;;;;;31.88;16.52;;;;;;;;;;5075740;28;20334;-80
2021/09/11 07:36:45;;;;;;;30.42;18.50;;;;;;;;;;5075538;28;20035;-81
2021/09/11 07:39:12;;;;;;;30.30;19.50;;;;;;;;;;5077205;28;20027;-81
2021/09/11 07:41:38;;;;;;;43.95;27.88;;;;;;;;;;5076483;28;20021;-82
2021/09/11 07:44:04;;;;;;;47.13;27.55;;;;;;;;;;5076156;28;20064;-81
2021/09/11 07:46:30;;;;;;;35.88;19.38;;;;;;;;;;5076907;28;20362;-81
2021/09/11 07:48:56;;;;;;;41.45;27.10;;;;;;;;;;5076860;28;20095;-82
2021/09/11 07:51:22;;;;;;;26.23;16.33;;;;;;;;;;5075845;28;20020;-82
2021/09/11 07:53:48;;;;;;;19.42;11.02;;;;;;;;;;5076974;28;20036;-82
2021/09/11 07:56:14;;;;;;;13.82;6.05;;;;;;;;;;5076945;28;20315;-82
2021/09/11 07:58:40;;;;;;;35.45;22.15;;;;;;;;;;5077089;28;20364;-82
2021/09/11 08:01:06;;;;;;;12.05;5.95;;;;;;;;;;5076799;28;20020;-82
2021/09/11 08:03:32;;;;;;;18.50;8.40;;;;;;;;;;5076941;28;20028;-82
2021/09/11 08:05:59;;;;;;;33.15;13.35;;;;;;;;;;5076883;28;20111;-82
2021/09/11 08:08:25;;;;;;;46.30;24.80;;;;;;;;;;5077028;28;20021;-82
2021/09/11 08:10:51;;;;;;;21.77;9.55;;;;;;;;;;5076659;28;20037;-82
2021/09/11 08:13:18;;;;;;;16.55;8.43;;;;;;;;;;5076891;28;20025;-81
2021/09/11 08:15:44;;;;;;;17.80;8.70;;;;;;;;;;5076823;28;20090;-81
2021/09/11 08:18:10;;;;;;;17.88;11.50;;;;;;;;;;5076878;28;20025;-82
2021/09/11 08:20:36;;;;;;;15.48;6.20;;;;;;;;;;5076815;28;20031;-82
2021/09/11 08:23:03;;;;;;;14.57;6.90;;;;;;;;;;5075781;28;20042;-82
2021/09/11 08:25:29;;;;;;;19.58;7.22;;;;;;;;;;5076749;28;20032;-82
2021/09/11 08:27:55;;;;;;;13.60;6.97;;;;;;;;;;5076656;28;20288;-82
2021/09/11 08:30:21;;;;;;;10.43;4.93;;;;;;;;;;5075886;28;20325;-82
2021/09/11 08:32:47;;;;;;;13.93;5.65;;;;;;;;;;5076394;28;20020;-82
2021/09/11 08:35:13;;;;;;;23.05;11.10;;;;;;;;;;5075160;28;20147;-82
2021/09/11 08:37:40;;;;;;;9.88;6.38;;;;;;;;;;5076512;28;20043;-81
2021/09/11 08:40:06;;;;;;;12.60;7.05;;;;;;;;;;5076822;28;20025;-82
2021/09/11 08:42:32;;;;;;;15.23;7.60;;;;;;;;;;5075510;28;20419;-82
2021/09/11 08:44:58;;;;;;;11.88;6.07;;;;;;;;;;5076549;28;20033;-82
2021/09/11 08:47:24;;;;;;;19.60;9.10;;;;;;;;;;5075892;28;20032;-82
2021/09/11 08:49:50;;;;;;;17.20;7.63;;;;;;;;;;5076369;28;20024;-82
2021/09/11 08:52:17;;;;;;;15.93;7.65;;;;;;;;;;5075374;28;20319;-82
2021/09/11 08:54:43;;;;;;;18.05;8.90;;;;;;;;;;5077702;28;20036;-82
2021/09/11 08:57:23;;;;;;;16.35;9.25;;;;;;;;;;5079939;28;20054;-81
2021/09/11 08:59:49;;;;;;;8.93;5.00;;;;;;;;;;5078966;28;20111;-81
2021/09/11 09:02:17;;;;;;;18.85;7.07;;;;;;;;;;5079876;28;20292;-81
2021/09/11 09:04:50;;;;;;;9.65;4.82;;;;;;;;;;5079166;28;20038;-82
2021/09/11 09:07:29;;;;;;;15.70;5.30;;;;;;;;;;5079855;28;20028;-81
2021/09/11 09:09:59;;;;;;;11.07;6.40;;;;;;;;;;5085014;28;20327;-81
2021/09/11 09:12:25;;;;;;;10.68;5.20;;;;;;;;;;5079750;28;20094;-81
2021/09/11 09:14:59;;;;;;;13.13;4.80;;;;;;;;;;5086634;28;20410;-82
2021/09/11 09:17:45;;;;;;;16.50;4.63;;;;;;;;;;5099603;28;20364;-82
2021/09/11 09:20:18;;;;;;;12.60;4.70;;;;;;;;;;5098654;28;20109;-81
2021/09/11 09:22:44;;;;;;;12.77;5.93;;;;;;;;;;5099364;28;20213;-82
2021/09/11 09:25:20;;;;;;;9.82;6.82;;;;;;;;;;5099832;28;20413;-82
2021/09/11 09:27:54;;;;;;;20.17;8.30;;;;;;;;;;5099719;28;20429;-81
2021/09/11 09:30:21;;;;;;;12.32;5.20;;;;;;;;;;5099601;28;20410;-81
2021/09/11 09:32:49;;;;;;;13.05;5.78;;;;;;;;;;5095066;28;20021;-81
2021/09/11 09:35:22;;;;;;;11.90;5.50;;;;;;;;;;5079054;28;20198;-82
2021/09/11 09:38:05;;;;;;;10.80;5.18;;;;;;;;;;5079055;28;20024;-82
2021/09/11 09:40:50;;;;;;;12.93;4.47;;;;;;;;;;5078435;28;20330;-82
2021/09/11 09:43:34;;;;;;;12.85;5.15;;;;;;;;;;5079099;28;20020;-81
2021/09/11 09:57:52;;;;;;;17.95;7.90;;;;;;;;;;5135677;27;20409;-80
2021/09/11 10:00:18;;;;;;;9.48;5.40;;;;;;;;;;5135354;28;20068;-81
2021/09/11 10:02:44;;;;;;;11.88;5.57;;;;;;;;;;5135370;28;20016;-81
2021/09/11 10:05:14;;;;;;;11.13;6.18;;;;;;;;;;5117417;28;20282;-81
2021/09/11 10:07:48;;;;;;;16.70;5.65;;;;;;;;;;5135315;28;20107;-81
2021/09/11 10:10:14;;;;;;;16.15;6.63;;;;;;;;;;5135240;28;20106;-81
2021/09/11 10:12:41;;;;;;;12.10;4.95;;;;;;;;;;5135118;28;20099;-81
2021/09/11 10:15:26;;;;;;;9.13;4.82;;;;;;;;;;5135012;28;20022;-79
2021/09/11 10:17:53;;;;;;;8.13;4.20;;;;;;;;;;5134946;28;20016;-79
2021/09/11 10:20:19;;;;;;;13.07;4.78;;;;;;;;;;5116682;28;20062;-78
2021/09/11 10:23:04;;;;;;;15.18;4.65;;;;;;;;;;5134583;28;20024;-79
2021/09/11 10:25:42;;;;;;;7.28;3.30;;;;;;;;;;5134783;28;20110;-78
2021/09/11 10:28:21;;;;;;;10.30;3.50;;;;;;;;;;5134844;28;20046;-79
2021/09/11 10:31:06;;;;;;;8.70;4.82;;;;;;;;;;5134623;28;20019;-79
2021/09/11 10:33:39;;;;;;;14.23;3.20;;;;;;;;;;5134866;28;20447;-80
2021/09/11 10:36:05;;;;;;;8.45;4.57;;;;;;;;;;5115897;28;20051;-79
2021/09/11 10:38:44;;;;;;;11.55;4.97;;;;;;;;;;5116159;28;20321;-80
2021/09/11 10:41:11;;;;;;;9.35;5.85;;;;;;;;;;5134658;28;20405;-79
2021/09/11 10:43:38;;;;;;;7.47;4.65;;;;;;;;;;5116028;28;20057;-79
2021/09/11 10:46:08;;;;;;;8.00;4.50;;;;;;;;;;5134473;28;20030;-78
2021/09/11 10:48:43;;;;;;;10.15;3.40;;;;;;;;;;5134372;28;20316;-79
2021/09/11 10:51:29;;;;;;;8.93;3.28;;;;;;;;;;5134610;28;20103;-79
2021/09/11 10:54:00;;;;;;;11.10;5.07;;;;;;;;;;5128563;28;20038;-79
2021/09/11 10:56:27;;;;;;;10.30;4.40;;;;;;;;;;5134058;27;20391;-79
2021/09/11 10:59:12;;;;;;;9.88;3.92;;;;;;;;;;5120238;28;20020;-79
2021/09/11 11:01:56;;;;;;;14.40;5.18;;;;;;;;;;5120620;28;20281;-80
2021/09/11 11:04:26;;;;;;;7.63;3.75;;;;;;;;;;5120377;28;20020;-79
2021/09/11 11:06:53;;;;;;;8.27;4.07;;;;;;;;;;5119309;28;20351;-79
2021/09/11 11:09:23;;;;;;;8.35;3.95;;;;;;;;;;5120336;28;20099;-79
2021/09/11 11:11:50;;;;;;;9.90;4.55;;;;;;;;;;5120220;28;20027;-80
2021/09/11 11:14:16;;;;;;;9.57;4.55;;;;;;;;;;5120331;28;20448;-79
2021/09/11 11:16:46;;;;;;;9.77;4.07;;;;;;;;;;5118930;28;20019;-80
2021/09/11 11:19:20;;;;;;;11.73;5.80;;;;;;;;;;5118760;28;20023;-79
2021/09/11 11:22:04;;;;;;;9.32;3.55;;;;;;;;;;5120190;28;20294;-79
2021/09/11 11:24:32;;;;;;;8.77;5.15;;;;;;;;;;5120020;28;20020;-79
2021/09/11 11:26:59;;;;;;;11.18;3.85;;;;;;;;;;5119938;28;20100;-79
2021/09/11 11:29:26;;;;;;;9.05;3.97;;;;;;;;;;5120241;28;20023;-79
2021/09/11 11:31:52;;;;;;;8.45;3.53;;;;;;;;;;5118119;28;20040;-78
2021/09/11 11:34:20;;;;;;;7.47;3.55;;;;;;;;;;5118337;28;20032;-79
2021/09/11 11:36:49;;;;;;;7.57;3.33;;;;;;;;;;5119625;28;20024;-79
2021/09/11 11:39:22;;;;;;;13.10;3.83;;;;;;;;;;5119814;28;20659;-79
2021/09/11 11:41:54;;;;;;;5.13;3.30;;;;;;;;;;5118309;28;20024;-79
2021/09/11 11:44:22;;;;;;;9.00;3.70;;;;;;;;;;5119606;28;20312;-79
2021/09/11 11:46:49;;;;;;;11.25;3.80;;;;;;;;;;5119699;28;20084;-79
2021/09/11 11:49:15;;;;;;;7.00;3.63;;;;;;;;;;5119401;28;20430;-78
2021/09/11 11:51:41;;;;;;;7.60;4.72;;;;;;;;;;5118332;28;20420;-79
2021/09/11 11:54:07;;;;;;;10.43;3.50;;;;;;;;;;5119625;28;20347;-79
2021/09/11 11:56:45;;;;;;;6.85;3.42;;;;;;;;;;5119145;28;20048;-79
2021/09/11 11:59:12;;;;;;;7.75;3.55;;;;;;;;;;5118324;28;20027;-78
2021/09/11 12:01:40;;;;;;;5.22;3.53;;;;;;;;;;5119375;28;20043;-79
2021/09/11 12:04:14;;;;;;;8.75;3.70;;;;;;;;;;5119330;28;20036;-78
2021/09/11 12:06:47;;;;;;;7.90;3.88;;;;;;;;;;5119267;27;20406;-78
2021/09/11 12:09:15;;;;;;;8.15;3.33;;;;;;;;;;5117055;28;20085;-79
2021/09/11 12:11:41;;;;;;;7.22;3.40;;;;;;;;;;5119312;28;20098;-79
2021/09/11 12:14:07;;;;;;;6.22;3.08;;;;;;;;;;5118948;28;20031;-79
2021/09/11 12:16:33;;;;;;;10.23;3.80;;;;;;;;;;5118947;28;20305;-79
2021/09/11 12:19:18;;;;;;;9.30;3.45;;;;;;;;;;5117454;28;20056;-79
2021/09/11 12:21:45;;;;;;;8.75;3.20;;;;;;;;;;5117805;28;20317;-79
2021/09/11 12:24:28;;;;;;;7.75;3.25;;;;;;;;;;5118871;28;20409;-79
2021/09/11 12:27:08;;;;;;;6.38;3.05;;;;;;;;;;5118865;28;20066;-79
2021/09/11 12:29:35;;;;;;;7.63;3.33;;;;;;;;;;5118862;28;20023;-79
2021/09/11 12:32:05;;;;;;;12.63;3.47;;;;;;;;;;5118633;28;20425;-79
2021/09/11 12:34:32;;;;;;;8.93;3.50;;;;;;;;;;5118617;28;20043;-79
2021/09/11 12:37:00;;;;;;;8.55;3.10;;;;;;;;;;5117164;28;20044;-79
2021/09/11 12:39:27;;;;;;;5.90;3.63;;;;;;;;;;5118730;27;20019;-80
2021/09/11 12:41:54;;;;;;;9.73;4.35;;;;;;;;;;5118560;28;20046;-79
2021/09/11 12:44:22;;;;;;;8.90;2.90;;;;;;;;;;5118711;28;20020;-79
2021/09/11 12:46:52;;;;;;;8.27;3.55;;;;;;;;;;5118337;28;20024;-80
2021/09/11 12:49:19;;;;;;;10.80;3.60;;;;;;;;;;5117466;28;20028;-80
2021/09/11 12:51:46;;;;;;;13.60;5.75;;;;;;;;;;5118395;28;20031;-80
2021/09/11 12:54:13;;;;;;;9.85;3.88;;;;;;;;;;5118123;28;20033;-80
2021/09/11 12:56:39;;;;;;;10.48;3.25;;;;;;;;;;5113683;28;20342;-79
2021/09/11 12:59:06;;;;;;;7.32;4.18;;;;;;;;;;5099425;28;20024;-80
2021/09/11 13:01:39;;;;;;;12.70;4.63;;;;;;;;;;5097963;28;20027;-80
2021/09/11 13:04:05;;;;;;;9.98;3.85;;;;;;;;;;5096262;28;20326;-79
2021/09/11 13:06:32;;;;;;;7.03;4.45;;;;;;;;;;5097664;28;20074;-80
2021/09/11 13:08:58;;;;;;;11.68;6.38;;;;;;;;;;5097330;28;20020;-80
2021/09/11 13:11:25;;;;;;;7.82;4.00;;;;;;;;;;5097581;28;20111;-80
2021/09/11 13:13:51;;;;;;;15.90;7.95;;;;;;;;;;5097796;28;20119;-80
2021/09/11 13:16:17;;;;;;;12.55;6.10;;;;;;;;;;5096373;28;20030;-80
2021/09/11 13:18:44;;;;;;;12.63;5.47;;;;;;;;;;5097649;28;20028;-80
2021/09/11 13:21:13;;;;;;;8.88;4.78;;;;;;;;;;5095788;28;20115;-80
2021/09/11 13:23:41;;;;;;;8.05;4.07;;;;;;;;;;5097447;28;20020;-79
2021/09/11 13:26:11;;;;;;;6.75;4.55;;;;;;;;;;5095880;28;20108;-79
2021/09/11 13:28:40;;;;;;;6.30;3.40;;;;;;;;;;5097393;28;20024;-79
2021/09/11 13:31:06;;;;;;;8.02;3.08;;;;;;;;;;5097241;28;20031;-79
2021/09/11 13:33:32;;;;;;;7.25;3.75;;;;;;;;;;5097260;28;20020;-79
2021/09/11 13:35:59;;;;;;;6.85;3.35;;;;;;;;;;5097090;28;20028;-79
2021/09/11 13:38:25;;;;;;;13.13;4.72;;;;;;;;;;5095990;28;20038;-79
2021/09/11 13:40:51;;;;;;;7.18;3.85;;;;;;;;;;5096182;28;20324;-79
2021/09/11 13:43:17;;;;;;;8.18;3.85;;;;;;;;;;5097183;28;20065;-78
2021/09/11 13:45:45;;;;;;;8.68;3.33;;;;;;;;;;5100019;28;20028;-79
2021/09/11 13:48:11;;;;;;;10.23;5.10;;;;;;;;;;5117354;28;20106;-79
2021/09/11 13:50:38;;;;;;;7.85;3.60;;;;;;;;;;5117572;28;20144;-79
2021/09/11 13:53:04;;;;;;;7.53;4.60;;;;;;;;;;5117119;28;20026;-79
2021/09/11 13:55:30;;;;;;;11.13;4.35;;;;;;;;;;5117070;28;20031;-80
2021/09/11 13:58:00;;;;;;;12.48;4.20;;;;;;;;;;5117206;28;20420;-79
2021/09/11 14:00:26;;;;;;;7.15;3.80;;;;;;;;;;5113639;28;20044;-79
2021/09/11 14:02:52;;;;;;;22.38;8.80;;;;;;;;;;5097094;28;20020;-79
2021/09/11 14:05:18;;;;;;;9.40;4.35;;;;;;;;;;5096939;28;20020;-79
2021/09/11 14:07:45;;;;;;;13.00;4.28;;;;;;;;;;5096911;28;20064;-79
2021/09/11 14:10:11;;;;;;;8.77;4.40;;;;;;;;;;5096783;28;20041;-79
2021/09/11 14:12:37;;;;;;;6.75;4.03;;;;;;;;;;5097000;28;20016;-79
2021/09/11 14:15:04;;;;;;;6.53;3.95;;;;;;;;;;5097093;28;20024;-79
2021/09/11 14:17:30;;;;;;;9.95;3.65;;;;;;;;;;5096733;28;20027;-79
2021/09/11 14:19:56;;;;;;;12.10;3.65;;;;;;;;;;5095600;28;20428;-79
2021/09/11 14:22:23;;;;;;;13.65;6.68;;;;;;;;;;5095559;28;20070;-79
2021/09/11 14:24:49;;;;;;;9.60;4.15;;;;;;;;;;5096951;28;20091;-79
2021/09/11 14:27:15;;;;;;;7.78;4.53;;;;;;;;;;5097088;28;20406;-80
2021/09/11 14:29:41;;;;;;;7.95;3.40;;;;;;;;;;5096738;28;20317;-79
2021/09/11 14:32:07;;;;;;;13.23;4.47;;;;;;;;;;5096973;28;20024;-79
2021/09/11 14:34:38;;;;;;;11.63;5.07;;;;;;;;;;5100459;28;20543;-79
2021/09/11 14:37:04;;;;;;;11.23;3.72;;;;;;;;;;5099041;28;20035;-78
2021/09/11 14:39:30;;;;;;;6.22;3.00;;;;;;;;;;5100446;28;20394;-79
2021/09/11 14:41:56;;;;;;;8.60;4.13;;;;;;;;;;5100350;28;20027;-79
2021/09/11 14:44:23;;;;;;;7.22;3.15;;;;;;;;;;5100491;28;20020;-78
2021/09/11 14:46:49;;;;;;;6.85;3.00;;;;;;;;;;5099312;28;20035;-79